createdAt,value
2022-09-23T04:33:55.638Z,21.70
2022-09-23T04:36:41.807Z,21.78
2022-09-23T04:39:09.012Z,21.67
2022-09-23T04:41:36.148Z,21.89
2022-09-23T04:44:04.255Z,21.58
2022-09-23T04:46:31.616Z,21.93
2022-09-23T04:48:58.914Z,21.39
2022-09-23T04:51:29.013Z,21.77
2022-09-23T04:53:56.681Z,21.45
2022-09-23T04:56:27.063Z,21.70
2022-09-23T04:58:56.778Z,21.53
2022-09-23T05:01:30.040Z,21.35
2022-09-23T05:04:15.888Z,21.75
2022-09-23T05:06:45.426Z,21.72
2022-09-23T05:09:20.159Z,21.86
2022-09-23T05:11:48.889Z,21.47
2022-09-23T05:19:45.259Z,21.39
2022-09-23T05:22:33.637Z,21.47
2022-09-23T05:25:04.786Z,21.67
2022-09-23T05:27:37.905Z,21.59
2022-09-23T05:30:08.960Z,21.71
2022-09-23T05:32:36.265Z,21.63
2022-09-23T05:35:07.911Z,21.68
2022-09-23T13:54:50.347Z,17.93
2022-09-23T13:57:29.883Z,17.80
2022-09-23T14:00:15.771Z,18.33
2022-09-23T14:02:47.233Z,18.34
2022-09-23T14:05:27.138Z,18.25
2022-09-23T14:07:57.503Z,18.21
2022-09-23T14:10:27.613Z,17.90
2022-09-23T14:13:03.200Z,17.93
2022-09-23T14:15:31.440Z,17.94
2022-09-23T14:18:06.537Z,18.09
2022-09-23T14:20:45.422Z,18.13
2022-09-23T14:23:15.003Z,17.94
2022-09-23T14:25:52.775Z,18.02
2022-09-23T14:28:29.029Z,18.17
2022-09-23T14:30:58.756Z,18.16
2022-09-23T14:33:31.183Z,17.92
2022-09-23T14:36:08.841Z,18.14
2022-09-23T14:38:51.846Z,17.83
2022-09-23T14:41:26.727Z,17.90
2022-09-23T14:43:57.433Z,17.84
2022-09-23T14:46:33.658Z,18.02
2022-09-23T14:49:15.820Z,17.80
2022-09-23T14:51:53.595Z,17.95
2022-09-23T14:54:35.020Z,18.21
2022-09-23T14:57:32.187Z,18.02
2022-09-23T15:00:02.845Z,17.94
2022-09-23T15:02:36.235Z,17.72
2022-09-23T15:05:24.068Z,17.85
2022-09-23T15:07:53.516Z,17.99
2022-09-23T15:10:28.165Z,17.80
2022-09-23T15:13:06.020Z,17.90
2022-09-23T15:15:33.877Z,17.77
2022-09-23T15:18:06.996Z,17.63
2022-09-23T15:20:35.745Z,17.94
2022-09-23T15:23:03.239Z,17.92
2022-09-23T15:25:41.148Z,17.84
2022-09-23T15:28:11.233Z,17.95
2022-09-23T15:30:39.384Z,17.94
2022-09-23T15:33:07.603Z,17.87
2022-09-23T15:35:36.978Z,18.00
2022-09-23T15:38:04.634Z,18.10
2022-09-23T15:40:34.509Z,17.77
2022-09-23T15:43:21.043Z,17.99
2022-09-23T15:45:50.684Z,18.05
2022-09-23T15:48:23.663Z,18.25
2022-09-23T15:50:52.427Z,18.32
2022-09-23T16:04:16.411Z,18.00
2022-09-23T16:06:45.683Z,18.15
2022-09-23T16:09:15.520Z,18.21
2022-09-23T16:11:50.972Z,18.26
2022-09-23T16:14:38.127Z,18.14
2022-09-23T16:17:06.157Z,18.44
2022-09-23T16:19:34.582Z,18.31
2022-09-23T16:22:02.326Z,18.48
2022-09-23T16:24:29.956Z,18.09
2022-09-23T16:27:00.251Z,18.35
2022-09-23T16:29:27.946Z,18.17
2022-09-23T16:32:04.548Z,18.05
2022-09-23T16:34:35.059Z,18.30
2022-09-23T16:37:04.964Z,18.53
2022-09-23T16:39:32.273Z,18.30
2022-09-23T16:42:01.589Z,18.26
2022-09-23T16:44:33.386Z,18.18
2022-09-23T16:47:00.682Z,18.47
2022-09-23T16:49:28.258Z,18.17
2022-09-23T16:51:55.820Z,18.43
2022-09-23T16:54:24.756Z,18.37
2022-09-23T16:56:52.922Z,18.68
2022-09-23T16:59:20.428Z,18.51
2022-09-23T17:02:06.979Z,18.44
2022-09-23T17:04:34.604Z,18.63
2022-09-23T17:07:02.232Z,18.65
2022-09-23T17:09:34.592Z,18.53
2022-09-23T17:12:30.048Z,18.33
2022-09-23T17:14:57.842Z,18.27
2022-09-23T17:17:28.733Z,18.13
2022-09-23T17:19:56.694Z,18.47
2022-09-23T17:22:24.405Z,18.57
2022-09-23T17:24:51.831Z,18.46
2022-09-23T17:27:19.569Z,18.49
2022-09-23T17:29:47.212Z,18.91
2022-09-23T17:32:15.167Z,18.81
2022-09-23T17:34:44.513Z,18.23
2022-09-23T17:37:13.141Z,18.33
2022-09-23T17:39:42.493Z,18.48
2022-09-23T17:42:15.869Z,18.54
2022-09-23T17:44:44.349Z,18.63
2022-09-23T17:47:11.873Z,18.63
2022-09-23T17:49:39.412Z,18.68
2022-09-23T17:52:08.233Z,18.32
2022-09-23T17:54:37.557Z,18.81
2022-09-23T17:57:04.724Z,18.77
2022-09-23T17:59:36.669Z,18.78
2022-09-23T18:02:07.022Z,18.78
2022-09-23T18:05:56.784Z,18.87
2022-09-23T18:08:06.048Z,18.90
2022-09-23T18:10:47.216Z,19.08
2022-09-23T18:13:18.027Z,18.94
2022-09-23T18:15:55.576Z,18.63
2022-09-23T18:18:23.523Z,19.20
2022-09-23T18:21:03.471Z,18.76
2022-09-23T18:23:40.097Z,18.96
2022-09-23T18:26:15.128Z,19.32
2022-09-23T18:28:44.284Z,18.98
2022-09-23T18:31:12.319Z,18.86
2022-09-23T18:33:40.030Z,19.20
2022-09-23T18:36:08.323Z,19.24
2022-09-23T18:38:44.378Z,18.96
2022-09-23T18:41:12.121Z,19.29
2022-09-23T18:43:42.366Z,19.06
2022-09-23T18:46:18.559Z,19.37
2022-09-23T18:49:04.447Z,19.26
2022-09-23T18:51:34.953Z,19.42
2022-09-23T18:54:04.288Z,18.97
2022-09-23T18:56:34.678Z,19.43
2022-09-23T18:59:01.791Z,18.97
2022-09-23T19:01:29.219Z,19.25
2022-09-23T19:03:57.602Z,19.00
2022-09-23T19:06:26.031Z,19.32
2022-09-23T19:08:55.107Z,19.34
2022-09-23T19:11:24.138Z,19.04
2022-09-23T19:14:03.678Z,19.23
2022-09-23T19:16:36.376Z,19.31
2022-09-23T19:19:11.787Z,19.00
2022-09-23T19:21:38.939Z,19.19
2022-09-23T19:27:53.320Z,19.71
2022-09-23T19:30:22.248Z,19.79
2022-09-23T19:32:49.896Z,19.43
2022-09-23T19:45:35.809Z,19.52
2022-09-23T19:48:10.087Z,19.70
2022-09-23T19:50:41.825Z,19.38
2022-09-23T19:53:09.015Z,19.29
2022-09-23T19:55:45.727Z,19.54
2022-09-23T19:58:14.573Z,19.74
2022-09-23T20:00:46.302Z,19.85
2022-09-23T20:03:13.572Z,19.76
2022-09-23T20:05:43.109Z,19.71
2022-09-23T20:08:10.519Z,19.61
2022-09-23T20:14:54.214Z,19.99
2022-09-23T20:17:21.270Z,19.77
